sensor_id;sensor_type;location;lat;lon;timestamp;P1;durP1;ratioP1;P2;durP2;ratioP2
9675;SDS011;4876;42.656;23.292;2022-08-20T00:00:44;9.63;;;4.65;;
9675;SDS011;4876;42.656;23.292;2022-08-20T00:03:13;6.03;;;4.57;;
9675;SDS011;4876;42.656;23.292;2022-08-20T00:05:44;6.05;;;4.70;;
9675;SDS011;4876;42.656;23.292;2022-08-20T00:08:14;5.63;;;4.20;;
9675;SDS011;4876;42.656;23.292;2022-08-20T00:10:41;8.75;;;4.65;;
9675;SDS011;4876;42.656;23.292;2022-08-20T00:13:10;6.05;;;4.65;;
9675;SDS011;4876;42.656;23.292;2022-08-20T00:15:41;5.53;;;4.78;;
9675;SDS011;4876;42.656;23.292;2022-08-20T00:18:08;6.18;;;5.25;;
9675;SDS011;4876;42.656;23.292;2022-08-20T00:20:36;5.13;;;4.45;;
9675;SDS011;4876;42.656;23.292;2022-08-20T00:23:06;7.97;;;4.97;;
9675;SDS011;4876;42.656;23.292;2022-08-20T00:25:34;7.25;;;5.18;;
9675;SDS011;4876;42.656;23.292;2022-08-20T00:28:01;5.28;;;4.75;;
9675;SDS011;4876;42.656;23.292;2022-08-20T00:30:29;7.63;;;5.30;;
9675;SDS011;4876;42.656;23.292;2022-08-20T00:32:59;7.80;;;5.32;;
9675;SDS011;4876;42.656;23.292;2022-08-20T00:35:29;5.13;;;4.60;;
9675;SDS011;4876;42.656;23.292;2022-08-20T00:37:59;5.95;;;5.22;;
9675;SDS011;4876;42.656;23.292;2022-08-20T00:40:27;5.32;;;4.80;;
9675;SDS011;4876;42.656;23.292;2022-08-20T00:42:57;9.45;;;4.93;;
9675;SDS011;4876;42.656;23.292;2022-08-20T00:45:25;6.22;;;5.43;;
9675;SDS011;4876;42.656;23.292;2022-08-20T00:47:54;6.68;;;5.38;;
9675;SDS011;4876;42.656;23.292;2022-08-20T00:50:23;6.50;;;5.32;;
9675;SDS011;4876;42.656;23.292;2022-08-20T00:52:56;10.02;;;5.18;;
9675;SDS011;4876;42.656;23.292;2022-08-20T00:55:23;5.70;;;4.93;;
9675;SDS011;4876;42.656;23.292;2022-08-20T00:57:53;5.30;;;4.80;;
9675;SDS011;4876;42.656;23.292;2022-08-20T01:00:28;5.40;;;4.68;;
9675;SDS011;4876;42.656;23.292;2022-08-20T01:02:57;6.63;;;5.45;;
9675;SDS011;4876;42.656;23.292;2022-08-20T01:05:25;5.90;;;4.90;;
9675;SDS011;4876;42.656;23.292;2022-08-20T01:07:53;7.75;;;5.55;;
9675;SDS011;4876;42.656;23.292;2022-08-20T01:10:21;5.68;;;5.00;;
9675;SDS011;4876;42.656;23.292;2022-08-20T01:12:52;7.28;;;5.75;;
9675;SDS011;4876;42.656;23.292;2022-08-20T01:15:22;5.60;;;4.55;;
9675;SDS011;4876;42.656;23.292;2022-08-20T01:17:54;8.15;;;5.28;;
9675;SDS011;4876;42.656;23.292;2022-08-20T01:20:24;5.80;;;4.72;;
9675;SDS011;4876;42.656;23.292;2022-08-20T01:22:54;5.97;;;5.07;;
9675;SDS011;4876;42.656;23.292;2022-08-20T01:25:48;5.43;;;4.93;;
9675;SDS011;4876;42.656;23.292;2022-08-20T01:28:18;5.22;;;4.68;;
9675;SDS011;4876;42.656;23.292;2022-08-20T01:30:49;5.40;;;4.88;;
9675;SDS011;4876;42.656;23.292;2022-08-20T01:33:16;5.70;;;5.10;;
9675;SDS011;4876;42.656;23.292;2022-08-20T01:35:44;6.63;;;5.53;;
9675;SDS011;4876;42.656;23.292;2022-08-20T01:38:11;8.80;;;4.93;;
9675;SDS011;4876;42.656;23.292;2022-08-20T01:40:47;5.37;;;4.37;;
9675;SDS011;4876;42.656;23.292;2022-08-20T01:43:22;5.33;;;4.87;;
9675;SDS011;4876;42.656;23.292;2022-08-20T01:45:50;7.47;;;5.63;;
9675;SDS011;4876;42.656;23.292;2022-08-20T01:48:17;5.25;;;4.72;;
9675;SDS011;4876;42.656;23.292;2022-08-20T01:50:47;5.50;;;4.90;;
9675;SDS011;4876;42.656;23.292;2022-08-20T01:53:20;5.77;;;4.70;;
9675;SDS011;4876;42.656;23.292;2022-08-20T01:55:55;6.63;;;5.33;;
9675;SDS011;4876;42.656;23.292;2022-08-20T01:58:22;7.13;;;5.10;;
9675;SDS011;4876;42.656;23.292;2022-08-20T02:00:49;6.10;;;4.83;;
9675;SDS011;4876;42.656;23.292;2022-08-20T02:03:15;4.77;;;4.37;;
9675;SDS011;4876;42.656;23.292;2022-08-20T02:05:42;5.60;;;4.80;;
9675;SDS011;4876;42.656;23.292;2022-08-20T02:08:09;5.53;;;4.57;;
9675;SDS011;4876;42.656;23.292;2022-08-20T02:10:36;5.50;;;4.83;;
9675;SDS011;4876;42.656;23.292;2022-08-20T02:13:04;5.50;;;5.00;;
9675;SDS011;4876;42.656;23.292;2022-08-20T02:15:34;6.43;;;4.87;;
9675;SDS011;4876;42.656;23.292;2022-08-20T02:18:02;11.10;;;5.10;;
9675;SDS011;4876;42.656;23.292;2022-08-20T02:20:30;6.40;;;4.83;;
9675;SDS011;4876;42.656;23.292;2022-08-20T02:22:57;7.97;;;4.97;;
9675;SDS011;4876;42.656;23.292;2022-08-20T02:25:26;6.30;;;5.60;;
9675;SDS011;4876;42.656;23.292;2022-08-20T02:27:56;5.23;;;4.73;;
9675;SDS011;4876;42.656;23.292;2022-08-20T02:30:27;7.77;;;5.23;;
9675;SDS011;4876;42.656;23.292;2022-08-20T02:32:57;5.23;;;4.70;;
9675;SDS011;4876;42.656;23.292;2022-08-20T02:35:24;6.10;;;5.50;;
9675;SDS011;4876;42.656;23.292;2022-08-20T02:37:51;6.23;;;5.17;;
9675;SDS011;4876;42.656;23.292;2022-08-20T02:40:20;5.20;;;4.70;;
9675;SDS011;4876;42.656;23.292;2022-08-20T02:42:50;5.73;;;5.13;;
9675;SDS011;4876;42.656;23.292;2022-08-20T02:45:17;9.87;;;5.27;;
9675;SDS011;4876;42.656;23.292;2022-08-20T02:47:48;10.23;;;5.13;;
9675;SDS011;4876;42.656;23.292;2022-08-20T02:50:17;5.60;;;4.97;;
9675;SDS011;4876;42.656;23.292;2022-08-20T02:52:45;7.33;;;5.50;;
9675;SDS011;4876;42.656;23.292;2022-08-20T02:55:13;7.60;;;5.13;;
9675;SDS011;4876;42.656;23.292;2022-08-20T02:57:40;5.67;;;5.03;;
9675;SDS011;4876;42.656;23.292;2022-08-20T03:00:08;5.70;;;4.90;;
9675;SDS011;4876;42.656;23.292;2022-08-20T03:02:38;6.17;;;5.40;;
9675;SDS011;4876;42.656;23.292;2022-08-20T03:05:07;8.93;;;5.07;;
9675;SDS011;4876;42.656;23.292;2022-08-20T03:07:39;5.80;;;4.83;;
9675;SDS011;4876;42.656;23.292;2022-08-20T03:10:06;5.70;;;5.20;;
9675;SDS011;4876;42.656;23.292;2022-08-20T03:12:33;5.60;;;4.90;;
9675;SDS011;4876;42.656;23.292;2022-08-20T03:15:03;6.77;;;5.20;;
9675;SDS011;4876;42.656;23.292;2022-08-20T03:17:31;5.57;;;4.87;;
9675;SDS011;4876;42.656;23.292;2022-08-20T03:19:58;5.17;;;4.67;;
9675;SDS011;4876;42.656;23.292;2022-08-20T03:22:26;5.63;;;5.00;;
9675;SDS011;4876;42.656;23.292;2022-08-20T03:24:52;6.40;;;5.13;;
9675;SDS011;4876;42.656;23.292;2022-08-20T03:27:19;5.90;;;5.40;;
9675;SDS011;4876;42.656;23.292;2022-08-20T03:29:46;9.23;;;5.50;;
9675;SDS011;4876;42.656;23.292;2022-08-20T03:32:13;7.53;;;5.67;;
9675;SDS011;4876;42.656;23.292;2022-08-20T03:34:40;5.63;;;4.70;;
9675;SDS011;4876;42.656;23.292;2022-08-20T03:37:07;8.23;;;5.17;;
9675;SDS011;4876;42.656;23.292;2022-08-20T03:39:37;7.73;;;5.40;;
9675;SDS011;4876;42.656;23.292;2022-08-20T03:42:04;6.93;;;4.90;;
9675;SDS011;4876;42.656;23.292;2022-08-20T03:44:32;5.93;;;4.80;;
9675;SDS011;4876;42.656;23.292;2022-08-20T03:47:01;5.93;;;5.10;;
9675;SDS011;4876;42.656;23.292;2022-08-20T03:49:31;7.90;;;5.60;;
9675;SDS011;4876;42.656;23.292;2022-08-20T03:51:58;13.63;;;6.37;;
9675;SDS011;4876;42.656;23.292;2022-08-20T03:54:26;7.27;;;5.17;;
9675;SDS011;4876;42.656;23.292;2022-08-20T03:56:54;5.83;;;5.10;;
9675;SDS011;4876;42.656;23.292;2022-08-20T03:59:21;5.73;;;5.23;;
9675;SDS011;4876;42.656;23.292;2022-08-20T04:01:48;7.13;;;4.83;;
9675;SDS011;4876;42.656;23.292;2022-08-20T04:04:16;7.30;;;5.40;;
9675;SDS011;4876;42.656;23.292;2022-08-20T04:06:43;7.13;;;5.43;;
9675;SDS011;4876;42.656;23.292;2022-08-20T04:09:11;6.57;;;5.47;;
9675;SDS011;4876;42.656;23.292;2022-08-20T04:11:38;12.90;;;5.43;;
9675;SDS011;4876;42.656;23.292;2022-08-20T04:14:06;8.03;;;6.00;;
9675;SDS011;4876;42.656;23.292;2022-08-20T04:16:34;9.07;;;5.93;;
9675;SDS011;4876;42.656;23.292;2022-08-20T04:19:02;7.93;;;5.13;;
9675;SDS011;4876;42.656;23.292;2022-08-20T04:21:29;13.05;;;5.95;;
9675;SDS011;4876;42.656;23.292;2022-08-20T04:23:56;8.25;;;5.30;;
9675;SDS011;4876;42.656;23.292;2022-08-20T04:26:23;6.25;;;5.32;;
9675;SDS011;4876;42.656;23.292;2022-08-20T04:28:50;21.23;;;5.70;;
9675;SDS011;4876;42.656;23.292;2022-08-20T04:31:21;6.53;;;5.82;;
9675;SDS011;4876;42.656;23.292;2022-08-20T04:33:57;8.90;;;5.47;;
9675;SDS011;4876;42.656;23.292;2022-08-20T04:36:24;6.10;;;5.50;;
9675;SDS011;4876;42.656;23.292;2022-08-20T04:38:51;7.85;;;5.93;;
9675;SDS011;4876;42.656;23.292;2022-08-20T04:41:18;8.38;;;6.22;;
9675;SDS011;4876;42.656;23.292;2022-08-20T04:43:46;9.13;;;5.55;;
9675;SDS011;4876;42.656;23.292;2022-08-20T04:46:13;9.30;;;5.78;;
9675;SDS011;4876;42.656;23.292;2022-08-20T04:48:41;7.10;;;5.68;;
9675;SDS011;4876;42.656;23.292;2022-08-20T04:51:09;15.40;;;6.78;;
9675;SDS011;4876;42.656;23.292;2022-08-20T04:53:39;8.07;;;6.00;;
9675;SDS011;4876;42.656;23.292;2022-08-20T04:56:06;11.40;;;6.10;;
9675;SDS011;4876;42.656;23.292;2022-08-20T04:58:35;10.90;;;5.15;;
9675;SDS011;4876;42.656;23.292;2022-08-20T05:01:05;6.57;;;5.90;;
9675;SDS011;4876;42.656;23.292;2022-08-20T05:03:33;9.20;;;5.78;;
9675;SDS011;4876;42.656;23.292;2022-08-20T05:06:03;6.90;;;5.07;;
9675;SDS011;4876;42.656;23.292;2022-08-20T05:08:31;11.70;;;6.18;;
9675;SDS011;4876;42.656;23.292;2022-08-20T05:10:58;6.63;;;5.70;;
9675;SDS011;4876;42.656;23.292;2022-08-20T05:13:25;7.45;;;6.03;;
9675;SDS011;4876;42.656;23.292;2022-08-20T05:15:52;8.23;;;5.75;;
9675;SDS011;4876;42.656;23.292;2022-08-20T05:18:21;9.68;;;5.95;;
9675;SDS011;4876;42.656;23.292;2022-08-20T05:20:50;8.80;;;6.25;;
9675;SDS011;4876;42.656;23.292;2022-08-20T05:23:19;8.73;;;6.22;;
9675;SDS011;4876;42.656;23.292;2022-08-20T05:25:48;7.50;;;5.68;;
9675;SDS011;4876;42.656;23.292;2022-08-20T05:28:16;6.65;;;5.78;;
9675;SDS011;4876;42.656;23.292;2022-08-20T05:30:46;9.98;;;5.93;;
9675;SDS011;4876;42.656;23.292;2022-08-20T05:33:14;6.68;;;6.00;;
9675;SDS011;4876;42.656;23.292;2022-08-20T05:35:44;6.47;;;5.85;;
9675;SDS011;4876;42.656;23.292;2022-08-20T05:38:13;14.85;;;6.40;;
9675;SDS011;4876;42.656;23.292;2022-08-20T05:40:44;7.43;;;6.45;;
9675;SDS011;4876;42.656;23.292;2022-08-20T05:43:12;12.02;;;5.95;;
9675;SDS011;4876;42.656;23.292;2022-08-20T05:45:40;7.43;;;6.38;;
9675;SDS011;4876;42.656;23.292;2022-08-20T05:48:09;8.52;;;6.43;;
9675;SDS011;4876;42.656;23.292;2022-08-20T05:50:39;7.50;;;6.70;;
9675;SDS011;4876;42.656;23.292;2022-08-20T05:53:07;12.85;;;6.10;;
9675;SDS011;4876;42.656;23.292;2022-08-20T05:55:34;6.90;;;6.05;;
9675;SDS011;4876;42.656;23.292;2022-08-20T05:58:04;8.07;;;6.13;;
9675;SDS011;4876;42.656;23.292;2022-08-20T06:00:32;6.90;;;5.38;;
9675;SDS011;4876;42.656;23.292;2022-08-20T06:03:01;11.73;;;6.47;;
9675;SDS011;4876;42.656;23.292;2022-08-20T06:05:45;7.35;;;6.65;;
9675;SDS011;4876;42.656;23.292;2022-08-20T06:08:12;8.45;;;6.45;;
9675;SDS011;4876;42.656;23.292;2022-08-20T06:10:39;7.10;;;6.28;;
9675;SDS011;4876;42.656;23.292;2022-08-20T06:13:07;7.97;;;5.82;;
9675;SDS011;4876;42.656;23.292;2022-08-20T06:15:34;9.52;;;6.20;;
9675;SDS011;4876;42.656;23.292;2022-08-20T06:18:04;8.65;;;6.50;;
9675;SDS011;4876;42.656;23.292;2022-08-20T06:20:32;7.55;;;6.05;;
9675;SDS011;4876;42.656;23.292;2022-08-20T06:22:59;8.57;;;6.63;;
9675;SDS011;4876;42.656;23.292;2022-08-20T06:25:26;9.68;;;6.72;;
9675;SDS011;4876;42.656;23.292;2022-08-20T06:27:53;10.60;;;6.65;;
9675;SDS011;4876;42.656;23.292;2022-08-20T06:30:21;6.60;;;5.90;;
9675;SDS011;4876;42.656;23.292;2022-08-20T06:32:49;10.50;;;6.43;;
9675;SDS011;4876;42.656;23.292;2022-08-20T06:35:17;7.82;;;5.50;;
9675;SDS011;4876;42.656;23.292;2022-08-20T06:37:44;7.35;;;6.00;;
9675;SDS011;4876;42.656;23.292;2022-08-20T06:40:13;12.13;;;6.45;;
9675;SDS011;4876;42.656;23.292;2022-08-20T06:42:41;6.90;;;5.75;;
9675;SDS011;4876;42.656;23.292;2022-08-20T06:45:09;8.02;;;6.43;;
9675;SDS011;4876;42.656;23.292;2022-08-20T06:47:39;6.75;;;5.75;;
9675;SDS011;4876;42.656;23.292;2022-08-20T06:50:08;7.78;;;6.30;;
9675;SDS011;4876;42.656;23.292;2022-08-20T06:52:37;6.25;;;5.57;;
9675;SDS011;4876;42.656;23.292;2022-08-20T06:55:05;6.35;;;5.75;;
9675;SDS011;4876;42.656;23.292;2022-08-20T06:57:34;6.85;;;6.10;;
9675;SDS011;4876;42.656;23.292;2022-08-20T07:00:02;8.48;;;5.85;;
9675;SDS011;4876;42.656;23.292;2022-08-20T07:02:30;14.13;;;6.32;;
9675;SDS011;4876;42.656;23.292;2022-08-20T07:04:59;7.90;;;6.15;;
9675;SDS011;4876;42.656;23.292;2022-08-20T07:07:26;12.45;;;5.53;;
9675;SDS011;4876;42.656;23.292;2022-08-20T07:09:57;6.90;;;5.85;;
9675;SDS011;4876;42.656;23.292;2022-08-20T07:12:25;6.45;;;5.72;;
9675;SDS011;4876;42.656;23.292;2022-08-20T07:14:51;7.10;;;6.47;;
9675;SDS011;4876;42.656;23.292;2022-08-20T07:17:19;7.85;;;6.38;;
9675;SDS011;4876;42.656;23.292;2022-08-20T07:19:46;9.38;;;6.43;;
9675;SDS011;4876;42.656;23.292;2022-08-20T07:22:14;6.72;;;6.13;;
9675;SDS011;4876;42.656;23.292;2022-08-20T07:24:41;10.20;;;6.70;;
9675;SDS011;4876;42.656;23.292;2022-08-20T07:27:08;7.03;;;6.32;;
9675;SDS011;4876;42.656;23.292;2022-08-20T07:29:35;6.30;;;5.70;;
9675;SDS011;4876;42.656;23.292;2022-08-20T07:32:15;6.20;;;5.60;;
9675;SDS011;4876;42.656;23.292;2022-08-20T07:35:01;9.73;;;6.53;;
9675;SDS011;4876;42.656;23.292;2022-08-20T07:37:31;6.57;;;5.75;;
9675;SDS011;4876;42.656;23.292;2022-08-20T07:40:03;12.95;;;6.40;;
9675;SDS011;4876;42.656;23.292;2022-08-20T07:42:31;8.60;;;5.70;;
9675;SDS011;4876;42.656;23.292;2022-08-20T07:44:58;8.25;;;6.00;;
9675;SDS011;4876;42.656;23.292;2022-08-20T07:47:25;7.57;;;6.00;;
9675;SDS011;4876;42.656;23.292;2022-08-20T07:49:51;8.15;;;7.00;;
9675;SDS011;4876;42.656;23.292;2022-08-20T07:52:18;6.95;;;5.45;;
9675;SDS011;4876;42.656;23.292;2022-08-20T07:54:49;10.50;;;5.10;;
9675;SDS011;4876;42.656;23.292;2022-08-20T07:57:16;6.85;;;5.60;;
9675;SDS011;4876;42.656;23.292;2022-08-20T07:59:42;6.80;;;6.03;;
9675;SDS011;4876;42.656;23.292;2022-08-20T08:02:10;8.35;;;6.43;;
9675;SDS011;4876;42.656;23.292;2022-08-20T08:04:37;7.38;;;6.57;;
9675;SDS011;4876;42.656;23.292;2022-08-20T08:07:04;7.55;;;6.70;;
9675;SDS011;4876;42.656;23.292;2022-08-20T08:09:32;7.53;;;6.68;;
9675;SDS011;4876;42.656;23.292;2022-08-20T08:12:02;13.30;;;6.55;;
9675;SDS011;4876;42.656;23.292;2022-08-20T08:14:30;9.73;;;6.53;;
9675;SDS011;4876;42.656;23.292;2022-08-20T08:17:00;7.43;;;6.22;;
9675;SDS011;4876;42.656;23.292;2022-08-20T08:19:30;7.10;;;6.40;;
9675;SDS011;4876;42.656;23.292;2022-08-20T08:22:03;7.72;;;5.93;;
9675;SDS011;4876;42.656;23.292;2022-08-20T08:24:32;7.82;;;6.25;;
9675;SDS011;4876;42.656;23.292;2022-08-20T08:26:58;6.65;;;6.05;;
9675;SDS011;4876;42.656;23.292;2022-08-20T08:29:27;7.03;;;6.32;;
9675;SDS011;4876;42.656;23.292;2022-08-20T08:31:54;9.40;;;6.45;;
9675;SDS011;4876;42.656;23.292;2022-08-20T08:34:21;8.73;;;6.28;;
9675;SDS011;4876;42.656;23.292;2022-08-20T08:36:49;5.93;;;5.38;;
9675;SDS011;4876;42.656;23.292;2022-08-20T08:39:16;6.38;;;5.78;;
9675;SDS011;4876;42.656;23.292;2022-08-20T08:41:44;7.72;;;6.60;;
9675;SDS011;4876;42.656;23.292;2022-08-20T08:44:14;7.72;;;6.85;;
9675;SDS011;4876;42.656;23.292;2022-08-20T08:46:49;7.63;;;6.30;;
9675;SDS011;4876;42.656;23.292;2022-08-20T08:49:21;7.25;;;5.88;;
9675;SDS011;4876;42.656;23.292;2022-08-20T08:51:52;8.93;;;6.75;;
9675;SDS011;4876;42.656;23.292;2022-08-20T08:54:24;9.13;;;6.45;;
9675;SDS011;4876;42.656;23.292;2022-08-20T08:56:53;8.30;;;6.43;;
9675;SDS011;4876;42.656;23.292;2022-08-20T08:59:21;8.30;;;6.65;;
9675;SDS011;4876;42.656;23.292;2022-08-20T09:01:51;7.93;;;6.57;;
9675;SDS011;4876;42.656;23.292;2022-08-20T09:04:21;7.32;;;6.63;;
9675;SDS011;4876;42.656;23.292;2022-08-20T09:06:53;6.82;;;6.22;;
9675;SDS011;4876;42.656;23.292;2022-08-20T09:09:20;11.13;;;6.72;;
9675;SDS011;4876;42.656;23.292;2022-08-20T09:11:50;6.78;;;6.10;;
9675;SDS011;4876;42.656;23.292;2022-08-20T09:14:19;5.90;;;5.38;;
9675;SDS011;4876;42.656;23.292;2022-08-20T09:16:51;6.85;;;6.15;;
9675;SDS011;4876;42.656;23.292;2022-08-20T09:19:19;7.43;;;6.72;;
9675;SDS011;4876;42.656;23.292;2022-08-20T09:21:46;7.70;;;6.57;;
9675;SDS011;4876;42.656;23.292;2022-08-20T09:24:12;7.60;;;6.82;;
9675;SDS011;4876;42.656;23.292;2022-08-20T09:26:39;10.20;;;6.82;;
9675;SDS011;4876;42.656;23.292;2022-08-20T09:29:06;13.07;;;7.03;;
9675;SDS011;4876;42.656;23.292;2022-08-20T09:31:33;8.65;;;6.60;;
9675;SDS011;4876;42.656;23.292;2022-08-20T09:34:02;6.90;;;6.30;;
9675;SDS011;4876;42.656;23.292;2022-08-20T09:36:29;6.35;;;5.75;;
9675;SDS011;4876;42.656;23.292;2022-08-20T09:38:56;8.48;;;6.90;;
9675;SDS011;4876;42.656;23.292;2022-08-20T09:41:22;7.82;;;7.03;;
9675;SDS011;4876;42.656;23.292;2022-08-20T09:43:49;10.18;;;6.13;;
9675;SDS011;4876;42.656;23.292;2022-08-20T09:46:16;6.93;;;6.20;;
9675;SDS011;4876;42.656;23.292;2022-08-20T09:48:43;6.95;;;6.25;;
9675;SDS011;4876;42.656;23.292;2022-08-20T09:51:11;11.70;;;6.35;;
9675;SDS011;4876;42.656;23.292;2022-08-20T09:53:38;6.40;;;5.80;;
9675;SDS011;4876;42.656;23.292;2022-08-20T09:56:04;6.72;;;6.13;;
9675;SDS011;4876;42.656;23.292;2022-08-20T09:58:33;7.22;;;6.53;;
9675;SDS011;4876;42.656;23.292;2022-08-20T10:01:02;8.90;;;6.88;;
9675;SDS011;4876;42.656;23.292;2022-08-20T10:03:33;7.22;;;6.53;;
9675;SDS011;4876;42.656;23.292;2022-08-20T10:05:59;7.43;;;6.35;;
9675;SDS011;4876;42.656;23.292;2022-08-20T10:08:28;8.27;;;6.38;;
9675;SDS011;4876;42.656;23.292;2022-08-20T10:10:54;7.72;;;6.97;;
9675;SDS011;4876;42.656;23.292;2022-08-20T10:13:21;7.07;;;6.45;;
9675;SDS011;4876;42.656;23.292;2022-08-20T10:15:48;9.48;;;6.20;;
9675;SDS011;4876;42.656;23.292;2022-08-20T10:18:15;7.20;;;6.50;;
9675;SDS011;4876;42.656;23.292;2022-08-20T10:20:42;9.15;;;7.10;;
9675;SDS011;4876;42.656;23.292;2022-08-20T10:23:09;12.30;;;6.90;;
9675;SDS011;4876;42.656;23.292;2022-08-20T10:25:37;6.78;;;6.07;;
9675;SDS011;4876;42.656;23.292;2022-08-20T10:28:04;6.35;;;5.75;;
9675;SDS011;4876;42.656;23.292;2022-08-20T10:30:31;8.95;;;6.03;;
9675;SDS011;4876;42.656;23.292;2022-08-20T10:32:59;7.13;;;6.15;;
9675;SDS011;4876;42.656;23.292;2022-08-20T10:35:26;6.68;;;6.05;;
9675;SDS011;4876;42.656;23.292;2022-08-20T10:37:53;6.32;;;5.68;;
9675;SDS011;4876;42.656;23.292;2022-08-20T10:40:19;6.15;;;5.55;;
9675;SDS011;4876;42.656;23.292;2022-08-20T10:42:48;8.95;;;6.07;;
9675;SDS011;4876;42.656;23.292;2022-08-20T10:45:15;6.70;;;6.10;;
9675;SDS011;4876;42.656;23.292;2022-08-20T10:47:43;6.80;;;6.10;;
9675;SDS011;4876;42.656;23.292;2022-08-20T10:50:13;9.60;;;6.32;;
9675;SDS011;4876;42.656;23.292;2022-08-20T10:52:44;7.38;;;6.25;;
9675;SDS011;4876;42.656;23.292;2022-08-20T10:55:11;7.50;;;6.80;;
9675;SDS011;4876;42.656;23.292;2022-08-20T10:57:39;8.02;;;6.40;;
9675;SDS011;4876;42.656;23.292;2022-08-20T11:00:08;9.57;;;8.38;;
9675;SDS011;4876;42.656;23.292;2022-08-20T11:02:36;6.95;;;6.07;;
9675;SDS011;4876;42.656;23.292;2022-08-20T11:05:04;7.18;;;6.07;;
9675;SDS011;4876;42.656;23.292;2022-08-20T11:07:33;6.88;;;6.00;;
9675;SDS011;4876;42.656;23.292;2022-08-20T11:10:02;7.20;;;6.43;;
9675;SDS011;4876;42.656;23.292;2022-08-20T11:12:30;7.47;;;6.65;;
9675;SDS011;4876;42.656;23.292;2022-08-20T11:14:57;9.20;;;6.47;;
9675;SDS011;4876;42.656;23.292;2022-08-20T11:17:26;7.43;;;6.70;;
9675;SDS011;4876;42.656;23.292;2022-08-20T11:19:54;7.05;;;6.35;;
9675;SDS011;4876;42.656;23.292;2022-08-20T11:22:21;7.03;;;6.43;;
9675;SDS011;4876;42.656;23.292;2022-08-20T11:24:48;7.68;;;6.97;;
9675;SDS011;4876;42.656;23.292;2022-08-20T11:27:17;8.20;;;5.53;;
9675;SDS011;4876;42.656;23.292;2022-08-20T11:29:48;7.72;;;7.03;;
9675;SDS011;4876;42.656;23.292;2022-08-20T11:32:14;8.23;;;7.32;;
9675;SDS011;4876;42.656;23.292;2022-08-20T11:34:43;8.48;;;6.43;;
9675;SDS011;4876;42.656;23.292;2022-08-20T11:37:10;9.05;;;6.90;;
9675;SDS011;4876;42.656;23.292;2022-08-20T11:39:38;6.95;;;6.30;;
9675;SDS011;4876;42.656;23.292;2022-08-20T11:42:04;10.38;;;6.93;;
9675;SDS011;4876;42.656;23.292;2022-08-20T11:44:31;7.55;;;6.75;;
9675;SDS011;4876;42.656;23.292;2022-08-20T11:46:58;8.32;;;7.07;;
9675;SDS011;4876;42.656;23.292;2022-08-20T11:49:27;11.02;;;7.22;;
9675;SDS011;4876;42.656;23.292;2022-08-20T11:51:56;6.90;;;6.30;;
9675;SDS011;4876;42.656;23.292;2022-08-20T11:54:23;7.25;;;6.38;;
9675;SDS011;4876;42.656;23.292;2022-08-20T11:56:49;6.75;;;5.90;;
9675;SDS011;4876;42.656;23.292;2022-08-20T11:59:16;7.30;;;5.45;;
9675;SDS011;4876;42.656;23.292;2022-08-20T12:01:43;9.02;;;4.78;;
9675;SDS011;4876;42.656;23.292;2022-08-20T12:04:10;6.88;;;6.10;;
9675;SDS011;4876;42.656;23.292;2022-08-20T12:06:37;7.00;;;6.30;;
9675;SDS011;4876;42.656;23.292;2022-08-20T12:09:05;8.32;;;6.00;;
9675;SDS011;4876;42.656;23.292;2022-08-20T12:11:32;10.52;;;6.75;;
9675;SDS011;4876;42.656;23.292;2022-08-20T12:13:58;7.45;;;6.75;;
9675;SDS011;4876;42.656;23.292;2022-08-20T12:16:25;8.60;;;6.90;;
9675;SDS011;4876;42.656;23.292;2022-08-20T12:18:52;7.30;;;6.60;;
9675;SDS011;4876;42.656;23.292;2022-08-20T12:21:19;6.30;;;5.70;;
9675;SDS011;4876;42.656;23.292;2022-08-20T12:23:46;6.63;;;6.03;;
9675;SDS011;4876;42.656;23.292;2022-08-20T12:26:14;7.80;;;6.13;;
9675;SDS011;4876;42.656;23.292;2022-08-20T12:28:42;8.88;;;6.45;;
9675;SDS011;4876;42.656;23.292;2022-08-20T12:31:09;7.03;;;6.15;;
9675;SDS011;4876;42.656;23.292;2022-08-20T12:33:36;7.15;;;6.45;;
9675;SDS011;4876;42.656;23.292;2022-08-20T12:36:02;9.20;;;7.18;;
9675;SDS011;4876;42.656;23.292;2022-08-20T12:38:30;11.93;;;8.95;;
9675;SDS011;4876;42.656;23.292;2022-08-20T12:40:56;10.05;;;7.68;;
9675;SDS011;4876;42.656;23.292;2022-08-20T12:43:25;10.85;;;8.73;;
9675;SDS011;4876;42.656;23.292;2022-08-20T12:45:52;10.57;;;8.60;;
9675;SDS011;4876;42.656;23.292;2022-08-20T12:48:18;15.60;;;9.75;;
9675;SDS011;4876;42.656;23.292;2022-08-20T12:50:46;10.10;;;8.32;;
9675;SDS011;4876;42.656;23.292;2022-08-20T12:53:14;18.10;;;8.50;;
9675;SDS011;4876;42.656;23.292;2022-08-20T12:55:41;14.68;;;8.32;;
9675;SDS011;4876;42.656;23.292;2022-08-20T12:58:08;10.57;;;8.43;;
9675;SDS011;4876;42.656;23.292;2022-08-20T13:00:38;22.95;;;8.65;;
9675;SDS011;4876;42.656;23.292;2022-08-20T13:03:08;11.63;;;8.77;;
9675;SDS011;4876;42.656;23.292;2022-08-20T13:05:37;10.65;;;8.25;;
9675;SDS011;4876;42.656;23.292;2022-08-20T13:08:04;17.08;;;9.02;;
9675;SDS011;4876;42.656;23.292;2022-08-20T13:10:33;12.13;;;8.02;;
9675;SDS011;4876;42.656;23.292;2022-08-20T13:13:01;11.95;;;8.48;;
9675;SDS011;4876;42.656;23.292;2022-08-20T13:15:29;11.77;;;9.13;;
9675;SDS011;4876;42.656;23.292;2022-08-20T13:17:59;10.48;;;8.15;;
9675;SDS011;4876;42.656;23.292;2022-08-20T13:20:27;9.82;;;8.82;;
9675;SDS011;4876;42.656;23.292;2022-08-20T13:22:55;16.42;;;9.40;;
9675;SDS011;4876;42.656;23.292;2022-08-20T13:25:22;13.35;;;9.40;;
9675;SDS011;4876;42.656;23.292;2022-08-20T13:27:53;13.05;;;9.18;;
9675;SDS011;4876;42.656;23.292;2022-08-20T13:30:22;12.27;;;8.82;;
9675;SDS011;4876;42.656;23.292;2022-08-20T13:32:49;10.95;;;8.55;;
9675;SDS011;4876;42.656;23.292;2022-08-20T13:35:17;15.63;;;8.10;;
9675;SDS011;4876;42.656;23.292;2022-08-20T13:37:44;10.40;;;8.13;;
9675;SDS011;4876;42.656;23.292;2022-08-20T13:40:13;10.60;;;7.95;;
9675;SDS011;4876;42.656;23.292;2022-08-20T13:42:40;12.07;;;8.23;;
9675;SDS011;4876;42.656;23.292;2022-08-20T13:45:07;14.13;;;8.23;;
9675;SDS011;4876;42.656;23.292;2022-08-20T13:47:35;9.90;;;8.40;;
9675;SDS011;4876;42.656;23.292;2022-08-20T13:50:04;12.32;;;8.93;;
9675;SDS011;4876;42.656;23.292;2022-08-20T13:52:35;9.98;;;8.02;;
9675;SDS011;4876;42.656;23.292;2022-08-20T13:55:03;14.98;;;8.85;;
9675;SDS011;4876;42.656;23.292;2022-08-20T13:57:30;14.18;;;7.85;;
9675;SDS011;4876;42.656;23.292;2022-08-20T13:59:57;11.82;;;8.93;;
9675;SDS011;4876;42.656;23.292;2022-08-20T14:02:24;12.20;;;7.35;;
9675;SDS011;4876;42.656;23.292;2022-08-20T14:04:52;10.48;;;8.63;;
9675;SDS011;4876;42.656;23.292;2022-08-20T14:07:21;10.82;;;8.68;;
9675;SDS011;4876;42.656;23.292;2022-08-20T14:09:53;12.07;;;8.57;;
9675;SDS011;4876;42.656;23.292;2022-08-20T14:12:22;9.75;;;8.75;;
9675;SDS011;4876;42.656;23.292;2022-08-20T14:14:50;12.45;;;9.52;;
9675;SDS011;4876;42.656;23.292;2022-08-20T14:17:18;9.73;;;8.57;;
9675;SDS011;4876;42.656;23.292;2022-08-20T14:19:48;9.60;;;8.70;;
9675;SDS011;4876;42.656;23.292;2022-08-20T14:22:16;10.20;;;8.77;;
9675;SDS011;4876;42.656;23.292;2022-08-20T14:24:44;10.07;;;9.07;;
9675;SDS011;4876;42.656;23.292;2022-08-20T14:27:13;11.57;;;8.43;;
9675;SDS011;4876;42.656;23.292;2022-08-20T14:29:41;11.67;;;9.50;;
9675;SDS011;4876;42.656;23.292;2022-08-20T14:32:10;11.17;;;8.93;;
9675;SDS011;4876;42.656;23.292;2022-08-20T14:34:37;11.97;;;8.93;;
9675;SDS011;4876;42.656;23.292;2022-08-20T14:37:11;12.27;;;8.30;;
9675;SDS011;4876;42.656;23.292;2022-08-20T14:39:39;9.50;;;8.50;;
9675;SDS011;4876;42.656;23.292;2022-08-20T14:42:06;12.17;;;9.40;;
9675;SDS011;4876;42.656;23.292;2022-08-20T14:44:35;10.43;;;9.30;;
9675;SDS011;4876;42.656;23.292;2022-08-20T14:47:09;13.13;;;10.07;;
9675;SDS011;4876;42.656;23.292;2022-08-20T14:49:40;11.13;;;9.87;;
9675;SDS011;4876;42.656;23.292;2022-08-20T14:52:08;16.73;;;9.40;;
9675;SDS011;4876;42.656;23.292;2022-08-20T14:54:36;8.43;;;6.83;;
9675;SDS011;4876;42.656;23.292;2022-08-20T14:57:03;15.93;;;8.23;;
9675;SDS011;4876;42.656;23.292;2022-08-20T14:59:32;11.33;;;8.90;;
9675;SDS011;4876;42.656;23.292;2022-08-20T15:02:02;12.93;;;9.10;;
9675;SDS011;4876;42.656;23.292;2022-08-20T15:04:30;10.20;;;8.73;;